createdAt,value
2023-01-23T00:00:05.578Z,26.42
2023-01-23T00:02:40.257Z,28.80
2023-01-23T00:05:10.200Z,27.25
2023-01-23T00:07:37.905Z,27.35
2023-01-23T00:10:06.182Z,25.60
2023-01-23T00:12:34.095Z,27.88
2023-01-23T00:15:01.816Z,27.38
2023-01-23T00:17:29.858Z,25.80
2023-01-23T00:19:58.436Z,27.08
2023-01-23T00:22:27.747Z,27.48
2023-01-23T00:24:55.559Z,28.20
2023-01-23T00:27:23.436Z,28.27
2023-01-23T00:29:53.263Z,29.02
2023-01-23T00:32:21.252Z,27.63
2023-01-23T00:34:49.908Z,30.33
2023-01-23T00:37:18.274Z,28.15
2023-01-23T00:39:50.928Z,28.92
2023-01-23T00:42:18.785Z,29.13
2023-01-23T00:44:46.857Z,31.88
2023-01-23T00:47:14.733Z,29.58
2023-01-23T00:49:42.568Z,30.73
2023-01-23T00:52:11.031Z,31.33
2023-01-23T00:54:39.445Z,29.70
2023-01-23T00:57:08.652Z,32.75
2023-01-23T00:59:36.503Z,33.00
2023-01-23T01:02:04.991Z,30.88
2023-01-23T01:04:32.752Z,32.47
2023-01-23T01:07:03.870Z,32.95
2023-01-23T01:09:31.646Z,33.60
2023-01-23T01:11:59.813Z,33.58
2023-01-23T01:14:28.942Z,34.42
2023-01-23T01:16:57.754Z,33.30
2023-01-23T01:19:28.196Z,33.05
2023-01-23T01:21:56.025Z,34.50
2023-01-23T01:24:23.778Z,36.22
2023-01-23T01:26:51.494Z,35.13
2023-01-23T01:29:19.333Z,35.28
2023-01-23T01:31:48.842Z,36.70
2023-01-23T01:34:16.634Z,33.55
2023-01-23T01:36:44.356Z,37.08
2023-01-23T01:39:12.238Z,36.17
2023-01-23T01:41:39.972Z,34.08
2023-01-23T01:44:07.699Z,34.53
2023-01-23T01:46:35.624Z,34.92
2023-01-23T01:49:07.488Z,35.85
2023-01-23T01:51:36.682Z,32.97
2023-01-23T01:54:07.515Z,33.67
2023-01-23T01:56:38.363Z,32.70
2023-01-23T01:59:07.195Z,31.55
2023-01-23T02:01:35.435Z,29.95
2023-01-23T02:04:07.233Z,30.77
2023-01-23T02:06:34.999Z,31.88
2023-01-23T02:09:04.851Z,33.95
2023-01-23T02:11:32.695Z,32.30
2023-01-23T02:14:00.506Z,32.30
2023-01-23T02:16:29.877Z,32.70
2023-01-23T02:18:59.926Z,32.88
2023-01-23T02:21:29.646Z,33.80
2023-01-23T02:24:04.332Z,34.20
2023-01-23T02:26:36.711Z,34.03
2023-01-23T02:29:05.304Z,34.92
2023-01-23T02:40:12.111Z,34.35
2023-01-23T02:42:46.231Z,33.63
2023-01-23T02:45:16.760Z,36.47
2023-01-23T02:47:45.505Z,33.70
2023-01-23T02:50:13.229Z,36.05
2023-01-23T02:52:41.057Z,34.70
2023-01-23T02:55:09.204Z,36.00
2023-01-23T02:57:36.939Z,36.08
2023-01-23T03:00:20.560Z,35.45
2023-01-23T03:02:49.503Z,34.25
2023-01-23T03:05:17.668Z,35.20
2023-01-23T03:07:45.732Z,36.15
2023-01-23T03:10:13.445Z,35.80
2023-01-23T03:12:45.246Z,36.83
2023-01-23T03:15:16.171Z,35.70
2023-01-23T03:17:43.865Z,35.97
2023-01-23T03:20:12.114Z,36.25
2023-01-23T03:22:40.724Z,34.70
2023-01-23T03:25:09.630Z,35.63
2023-01-23T03:27:37.531Z,35.78
2023-01-23T03:30:13.837Z,34.80
2023-01-23T03:32:43.621Z,36.92
2023-01-23T03:35:14.015Z,36.13
2023-01-23T03:37:42.250Z,35.65
2023-01-23T03:40:30.127Z,36.95
2023-01-23T03:42:58.487Z,35.67
2023-01-23T03:45:28.854Z,35.42
2023-01-23T03:47:58.606Z,34.85
2023-01-23T03:50:26.556Z,36.05
2023-01-23T03:52:54.391Z,35.40
2023-01-23T03:55:22.410Z,37.92
2023-01-23T03:57:50.384Z,41.30
2023-01-23T04:00:18.621Z,38.17
2023-01-23T04:02:54.513Z,39.88
2023-01-23T04:05:23.697Z,37.10
2023-01-23T04:07:51.498Z,37.88
2023-01-23T04:10:20.009Z,37.40
2023-01-23T04:12:53.347Z,38.80
2023-01-23T04:15:21.191Z,38.70
2023-01-23T04:17:50.546Z,37.50
2023-01-23T04:20:18.624Z,35.97
2023-01-23T04:22:48.223Z,35.70
2023-01-23T04:25:16.546Z,36.58
2023-01-23T04:27:44.340Z,38.45
2023-01-23T04:30:13.449Z,35.92
2023-01-23T04:32:41.774Z,37.85
2023-01-23T04:35:09.995Z,36.53
2023-01-23T04:37:40.157Z,36.58
2023-01-23T04:40:10.860Z,35.67
2023-01-23T04:42:51.455Z,36.30
2023-01-23T04:45:43.969Z,35.17
2023-01-23T04:48:22.242Z,36.05
2023-01-23T04:50:50.554Z,35.95
2023-01-23T04:53:18.393Z,37.05
2023-01-23T04:55:50.098Z,34.92
2023-01-23T04:58:21.551Z,36.08
2023-01-23T05:00:50.430Z,34.40
2023-01-23T05:03:23.444Z,33.75
2023-01-23T05:05:52.134Z,33.47
2023-01-23T05:08:19.923Z,35.47
2023-01-23T05:10:57.148Z,36.20
2023-01-23T05:13:25.032Z,33.13
2023-01-23T05:15:53.931Z,36.13
2023-01-23T05:18:22.424Z,34.78
2023-01-23T05:20:50.307Z,34.25
2023-01-23T05:23:18.316Z,37.80
2023-01-23T05:25:50.537Z,34.45
2023-01-23T05:28:20.093Z,34.40
2023-01-23T05:30:52.603Z,35.55
2023-01-23T05:33:26.495Z,34.78
2023-01-23T05:35:54.779Z,31.65
2023-01-23T05:38:22.843Z,32.90
2023-01-23T05:40:51.691Z,32.30
2023-01-23T05:43:39.494Z,32.38
2023-01-23T05:46:22.286Z,33.47
2023-01-23T05:48:53.515Z,34.50
2023-01-23T05:51:23.357Z,35.55
2023-01-23T05:53:51.995Z,34.40
2023-01-23T05:56:20.218Z,34.72
2023-01-23T05:59:21.294Z,36.38
2023-01-23T06:01:59.273Z,37.05
2023-01-23T06:04:39.103Z,37.92
2023-01-23T06:07:27.235Z,38.30
2023-01-23T06:09:58.361Z,36.83
2023-01-23T06:12:26.250Z,39.45
2023-01-23T06:14:55.616Z,38.78
2023-01-23T06:17:23.898Z,39.15
2023-01-23T06:19:52.419Z,36.90
2023-01-23T06:22:20.289Z,39.75
2023-01-23T06:25:03.068Z,39.53
2023-01-23T06:27:31.060Z,40.65
2023-01-23T06:30:03.207Z,38.92
2023-01-23T06:32:32.790Z,41.78
2023-01-23T06:35:00.820Z,39.22
2023-01-23T06:37:29.090Z,41.78
2023-01-23T06:39:56.843Z,40.28
2023-01-23T06:42:24.729Z,42.92
2023-01-23T06:44:53.506Z,39.20
2023-01-23T06:47:24.719Z,40.25
2023-01-23T06:50:02.090Z,38.67
2023-01-23T06:52:33.469Z,41.58
2023-01-23T06:55:01.271Z,40.97
2023-01-23T06:57:29.041Z,40.22
2023-01-23T06:59:58.124Z,39.22
2023-01-23T07:02:27.735Z,40.08
2023-01-23T07:04:56.199Z,39.38
2023-01-23T07:07:23.996Z,43.08
2023-01-23T07:09:52.569Z,42.13
2023-01-23T07:12:24.261Z,40.80
2023-01-23T07:14:53.084Z,39.63
2023-01-23T07:17:27.499Z,38.35
2023-01-23T07:19:55.309Z,39.78
2023-01-23T07:22:23.616Z,38.20
2023-01-23T07:24:52.036Z,40.90
2023-01-23T07:27:19.944Z,38.65
2023-01-23T07:29:47.720Z,39.25
2023-01-23T07:32:15.480Z,37.55
2023-01-23T07:34:44.600Z,36.83
2023-01-23T07:37:12.450Z,37.83
2023-01-23T07:39:40.189Z,36.72
2023-01-23T07:42:08.089Z,36.97
2023-01-23T07:44:36.206Z,38.00
2023-01-23T07:47:04.267Z,38.25
2023-01-23T07:49:32.136Z,37.63
2023-01-23T07:52:01.271Z,36.10
2023-01-23T07:54:29.318Z,37.40
2023-01-23T07:56:57.142Z,34.58
2023-01-23T07:59:24.986Z,37.70
2023-01-23T08:01:52.859Z,36.85
2023-01-23T08:04:20.663Z,35.50
2023-01-23T08:06:48.392Z,35.08
2023-01-23T08:09:17.753Z,34.72
2023-01-23T08:11:45.558Z,31.70
2023-01-23T08:14:14.132Z,33.22
2023-01-23T08:16:41.932Z,32.97
2023-01-23T08:19:09.786Z,34.47
2023-01-23T08:21:37.888Z,33.83
2023-01-23T08:24:06.082Z,30.90
2023-01-23T08:26:35.470Z,30.75
2023-01-23T08:29:03.791Z,31.05
2023-01-23T08:31:32.051Z,28.00
2023-01-23T08:34:00.053Z,28.85
2023-01-23T08:36:28.797Z,28.13
2023-01-23T08:38:56.780Z,29.58
2023-01-23T08:41:24.623Z,29.13
2023-01-23T08:43:53.727Z,29.10
2023-01-23T08:46:22.107Z,27.95
2023-01-23T08:48:50.102Z,27.42
2023-01-23T08:51:17.895Z,26.67
2023-01-23T08:53:45.899Z,27.80
2023-01-23T08:56:16.888Z,26.20
2023-01-23T08:58:45.213Z,27.50
2023-01-23T09:01:14.857Z,27.98
2023-01-23T09:03:42.763Z,29.15
2023-01-23T09:06:11.272Z,26.92
2023-01-23T09:08:39.064Z,27.48
2023-01-23T09:11:10.496Z,26.92
2023-01-23T09:13:38.357Z,24.15
2023-01-23T09:16:08.221Z,26.00
2023-01-23T09:18:37.699Z,25.42
2023-01-23T09:21:08.849Z,26.15
2023-01-23T09:23:37.005Z,23.90
2023-01-23T09:26:05.693Z,23.60
2023-01-23T09:28:33.689Z,22.17
2023-01-23T09:31:05.151Z,21.58
2023-01-23T09:33:33.025Z,22.13
2023-01-23T09:36:02.606Z,22.70
2023-01-23T09:38:30.839Z,22.73
2023-01-23T09:40:59.755Z,22.67
2023-01-23T09:43:34.173Z,22.08
2023-01-23T09:46:07.412Z,22.10
2023-01-23T09:48:40.122Z,21.15
2023-01-23T09:51:13.878Z,22.52
2023-01-23T09:53:42.818Z,22.48
2023-01-23T09:56:15.551Z,25.05
2023-01-23T09:58:48.673Z,23.42
2023-01-23T10:01:16.481Z,21.38
2023-01-23T10:03:44.840Z,21.85
2023-01-23T10:06:20.553Z,23.27
2023-01-23T10:08:55.257Z,27.02
2023-01-23T10:11:26.124Z,24.50
2023-01-23T10:14:08.161Z,28.58
2023-01-23T10:16:50.682Z,21.58
2023-01-23T10:19:24.494Z,22.70
2023-01-23T10:21:56.694Z,22.58
2023-01-23T10:24:40.079Z,21.40
2023-01-23T10:27:16.522Z,21.85
2023-01-23T10:29:46.220Z,20.98
2023-01-23T10:32:19.445Z,22.85
2023-01-23T10:34:49.982Z,22.05
2023-01-23T10:37:21.919Z,22.02
2023-01-23T10:39:51.961Z,28.75
2023-01-23T10:42:22.914Z,23.00
2023-01-23T10:44:50.717Z,25.45
2023-01-23T10:47:21.218Z,23.33
2023-01-23T10:49:51.116Z,22.08
2023-01-23T10:52:34.440Z,21.85
2023-01-23T10:55:02.573Z,20.42
2023-01-23T10:57:31.352Z,21.50
2023-01-23T11:00:03.946Z,25.30
2023-01-23T11:02:33.352Z,22.60
2023-01-23T11:05:02.022Z,23.48
2023-01-23T11:07:30.754Z,23.15
2023-01-23T11:10:01.798Z,24.08
2023-01-23T11:12:31.894Z,22.20
2023-01-23T11:15:14.080Z,22.30
2023-01-23T11:17:43.004Z,23.92
2023-01-23T11:20:24.429Z,23.90
2023-01-23T11:23:01.380Z,21.92
2023-01-23T11:25:31.697Z,22.48
2023-01-23T11:28:00.234Z,22.30
2023-01-23T11:30:34.830Z,22.05
2023-01-23T11:33:05.294Z,21.85
2023-01-23T11:35:45.512Z,21.50
2023-01-23T11:38:17.961Z,22.92
2023-01-23T11:40:49.081Z,22.77
2023-01-23T11:43:17.198Z,22.90
2023-01-23T11:45:50.121Z,22.08
2023-01-23T11:48:24.506Z,22.55
2023-01-23T11:50:57.177Z,21.48
2023-01-23T11:53:41.076Z,23.92
2023-01-23T11:56:18.991Z,22.38
2023-01-23T11:59:04.529Z,23.48
2023-01-23T12:01:34.928Z,24.55
2023-01-23T12:04:23.835Z,24.45
2023-01-23T12:06:58.543Z,22.20
2023-01-23T12:09:31.586Z,23.10
2023-01-23T12:12:05.977Z,24.10
2023-01-23T12:14:38.780Z,22.52
2023-01-23T12:17:12.313Z,21.42
2023-01-23T12:20:00.623Z,23.77
2023-01-23T12:22:31.016Z,23.13
2023-01-23T12:25:05.958Z,23.70
2023-01-23T12:27:41.037Z,23.75
2023-01-23T12:30:21.032Z,25.20
2023-01-23T12:32:54.300Z,23.70
2023-01-23T12:35:30.141Z,22.50
2023-01-23T12:38:04.132Z,24.05
2023-01-23T12:40:34.792Z,25.02
2023-01-23T12:43:06.807Z,22.40
2023-01-23T12:45:34.934Z,24.35
2023-01-23T12:48:06.219Z,23.10
2023-01-23T12:50:37.017Z,22.25
2023-01-23T12:53:06.741Z,22.80
2023-01-23T12:55:38.027Z,24.95
2023-01-23T12:58:09.794Z,24.65
2023-01-23T13:00:45.887Z,22.85
2023-01-23T13:03:22.756Z,25.25
2023-01-23T13:05:57.038Z,25.00
2023-01-23T13:08:29.012Z,23.65
2023-01-23T13:11:21.015Z,24.50
2023-01-23T13:13:51.166Z,25.23
2023-01-23T13:16:21.032Z,24.05
2023-01-23T13:19:12.691Z,22.77
2023-01-23T13:21:58.173Z,23.08
2023-01-23T13:24:55.861Z,24.40
2023-01-23T13:27:41.028Z,24.30
2023-01-23T13:30:31.628Z,24.23
2023-01-23T13:33:03.811Z,26.27
2023-01-23T13:35:53.027Z,30.48
2023-01-23T13:38:32.104Z,26.83
2023-01-23T13:41:20.892Z,26.20
2023-01-23T13:43:53.029Z,25.40
2023-01-23T13:46:25.766Z,27.80
2023-01-23T14:21:41.177Z,24.73
2023-01-23T14:24:21.257Z,24.67
2023-01-23T14:26:49.927Z,24.20
2023-01-23T14:29:21.586Z,25.85
2023-01-23T14:31:51.243Z,25.70
2023-01-23T14:34:19.876Z,27.35
2023-01-23T14:36:51.555Z,26.35
2023-01-23T14:39:21.421Z,25.60
2023-01-23T14:41:49.892Z,26.17
2023-01-23T14:44:21.111Z,26.75
2023-01-23T14:46:51.888Z,26.92
2023-01-23T14:49:23.518Z,27.25
2023-01-23T14:51:57.153Z,28.80
2023-01-23T14:54:29.597Z,26.42
2023-01-23T14:57:04.568Z,26.48
2023-01-23T14:59:34.229Z,27.08
2023-01-23T15:02:07.705Z,27.90
2023-01-23T15:04:44.252Z,29.50
2023-01-23T15:07:15.881Z,30.60
2023-01-23T15:09:46.533Z,30.15
2023-01-23T15:12:20.743Z,29.75
2023-01-23T15:14:53.399Z,28.77
2023-01-23T15:17:21.740Z,27.80
2023-01-23T15:19:51.136Z,26.70
2023-01-23T15:22:21.987Z,31.58
2023-01-23T15:24:49.969Z,30.25
2023-01-23T15:27:24.861Z,27.88
2023-01-23T15:29:52.719Z,32.47
2023-01-23T15:32:26.884Z,30.40
2023-01-23T15:34:55.732Z,31.25
2023-01-23T15:37:26.241Z,29.48
2023-01-23T15:39:55.605Z,27.85
2023-01-23T15:42:27.575Z,29.35
2023-01-23T15:44:55.793Z,29.25
2023-01-23T15:47:23.856Z,29.67
2023-01-23T15:49:51.575Z,30.02
2023-01-23T15:52:21.493Z,33.97
2023-01-23T15:54:51.678Z,33.90
2023-01-23T15:57:19.694Z,32.20
2023-01-23T15:59:48.437Z,33.30
2023-01-23T16:02:29.543Z,34.88
2023-01-23T16:04:59.147Z,33.05
2023-01-23T16:07:28.408Z,30.60
2023-01-23T16:09:58.240Z,30.10
2023-01-23T16:12:28.255Z,31.50
2023-01-23T16:14:56.076Z,33.97
2023-01-23T16:17:24.007Z,29.85
2023-01-23T16:19:51.735Z,32.83
2023-01-23T16:22:23.662Z,31.42
2023-01-23T16:24:51.566Z,29.38
2023-01-23T16:27:27.378Z,32.03
2023-01-23T16:29:56.007Z,28.92
2023-01-23T16:32:25.127Z,28.60
2023-01-23T16:34:54.379Z,29.85
2023-01-23T16:37:23.447Z,30.90
2023-01-23T16:39:51.335Z,28.58
2023-01-23T16:42:22.174Z,30.80
2023-01-23T16:44:50.231Z,36.78
2023-01-23T16:47:18.428Z,33.30
2023-01-23T16:49:52.676Z,29.85
2023-01-23T16:52:22.306Z,30.17
2023-01-23T16:54:52.626Z,29.00
2023-01-23T16:57:22.157Z,31.75
2023-01-23T16:59:50.388Z,30.27
2023-01-23T17:02:21.128Z,39.00
2023-01-23T17:04:49.322Z,33.60
2023-01-23T17:07:17.625Z,31.33
2023-01-23T17:09:45.418Z,30.00
2023-01-23T17:12:15.328Z,29.13
2023-01-23T17:14:45.933Z,31.40
2023-01-23T17:17:16.342Z,32.78
2023-01-23T17:19:44.925Z,32.25
2023-01-23T17:22:19.306Z,30.17
2023-01-23T17:27:14.899Z,31.00
2023-01-23T17:29:44.330Z,30.92
2023-01-23T17:32:19.964Z,28.92
2023-01-23T17:34:50.215Z,28.73
2023-01-23T17:37:22.237Z,29.77
2023-01-23T17:39:50.030Z,29.05
2023-01-23T17:42:18.090Z,29.55
2023-01-23T17:44:47.156Z,30.35
2023-01-23T17:47:15.557Z,29.55
2023-01-23T17:49:46.784Z,29.17
2023-01-23T17:52:14.969Z,30.30
2023-01-23T17:54:43.000Z,31.20
2023-01-23T17:57:10.745Z,31.58
2023-01-23T17:59:38.476Z,31.17
2023-01-23T18:02:19.044Z,32.20
2023-01-23T18:04:46.809Z,30.38
2023-01-23T18:07:14.615Z,31.67
2023-01-23T18:09:42.327Z,29.65
2023-01-23T18:12:12.110Z,30.77
2023-01-23T18:14:43.660Z,30.13
2023-01-23T18:17:17.405Z,30.27
2023-01-23T18:19:45.571Z,30.77
2023-01-23T18:22:13.645Z,33.15
2023-01-23T18:24:42.960Z,31.10
2023-01-23T18:27:17.231Z,32.20
2023-01-23T18:29:51.319Z,31.67
2023-01-23T18:32:31.355Z,31.02
2023-01-23T18:35:04.245Z,33.67
2023-01-23T18:37:36.548Z,32.10
2023-01-23T18:40:07.301Z,31.40
2023-01-23T18:42:38.705Z,32.45
2023-01-23T18:45:11.042Z,31.17
2023-01-23T18:47:42.361Z,31.95
2023-01-23T18:50:17.454Z,32.70
2023-01-23T18:52:51.011Z,32.55
2023-01-23T18:55:25.402Z,32.35
2023-01-23T18:57:59.609Z,36.33
2023-01-23T19:00:30.393Z,34.40
2023-01-23T19:03:02.641Z,35.17
2023-01-23T19:05:32.707Z,34.63
2023-01-23T19:08:01.384Z,35.40
2023-01-23T19:10:32.568Z,36.47
2023-01-23T19:13:07.719Z,26.33
2023-01-23T19:15:40.421Z,35.80
2023-01-23T19:18:16.249Z,35.45
2023-01-23T19:20:48.387Z,37.20
2023-01-23T19:23:27.702Z,38.60
2023-01-23T19:25:56.077Z,37.40
2023-01-23T19:28:24.443Z,40.38
2023-01-23T19:30:52.584Z,40.25
2023-01-23T19:33:22.414Z,39.85
2023-01-23T19:35:51.391Z,38.75
2023-01-23T19:38:19.281Z,38.38
2023-01-23T19:40:49.241Z,39.88
2023-01-23T19:43:18.020Z,37.55
2023-01-23T19:45:46.441Z,39.40
2023-01-23T19:48:14.714Z,37.92
2023-01-23T19:50:44.143Z,40.50
2023-01-23T19:53:13.503Z,40.55
2023-01-23T19:55:42.119Z,40.83
2023-01-23T19:58:10.578Z,39.88
2023-01-23T20:00:38.418Z,38.25
2023-01-23T20:03:06.586Z,40.28
2023-01-23T20:05:34.430Z,37.10
2023-01-23T20:08:03.875Z,38.58
2023-01-23T20:10:31.816Z,38.30
2023-01-23T20:12:59.890Z,40.05
2023-01-23T20:15:27.913Z,40.72
2023-01-23T20:17:55.567Z,39.10
2023-01-23T20:20:23.610Z,40.90
2023-01-23T20:22:51.768Z,40.17
2023-01-23T20:25:21.356Z,42.53
2023-01-23T20:27:49.530Z,40.60
2023-01-23T20:30:18.286Z,40.28
2023-01-23T20:32:46.289Z,41.88
2023-01-23T20:35:14.349Z,38.75
2023-01-23T20:37:42.330Z,38.22
2023-01-23T20:40:11.669Z,38.95
2023-01-23T20:42:41.251Z,36.65
2023-01-23T20:45:09.788Z,37.65
2023-01-23T20:47:37.986Z,39.25
2023-01-23T20:50:06.427Z,39.15
2023-01-23T20:52:51.633Z,39.13
2023-01-23T20:55:19.359Z,36.33
2023-01-23T20:58:06.225Z,40.08
2023-01-23T21:00:34.333Z,37.17
2023-01-23T21:03:02.199Z,39.08
2023-01-23T21:05:30.037Z,38.78
2023-01-23T21:07:58.050Z,39.60
2023-01-23T21:10:25.806Z,39.40
2023-01-23T21:12:55.379Z,39.35
2023-01-23T21:15:23.606Z,40.45
2023-01-23T21:17:51.656Z,39.53
2023-01-23T21:20:19.447Z,43.17
2023-01-23T21:22:48.084Z,43.22
2023-01-23T21:25:16.034Z,41.40
2023-01-23T21:27:44.064Z,40.90
2023-01-23T21:30:14.095Z,40.67
2023-01-23T21:32:42.138Z,40.45
2023-01-23T21:35:10.333Z,39.53
2023-01-23T21:37:38.187Z,40.40
2023-01-23T21:40:06.708Z,40.63
2023-01-23T21:42:34.443Z,38.85
2023-01-23T21:45:02.548Z,40.50
2023-01-23T21:47:31.689Z,41.22
2023-01-23T21:49:59.425Z,39.05
2023-01-23T21:52:27.149Z,38.95
2023-01-23T21:54:56.124Z,41.08
2023-01-23T21:57:24.573Z,40.42
2023-01-23T22:00:06.239Z,38.13
2023-01-23T22:02:41.695Z,39.90
2023-01-23T22:05:09.687Z,38.42
2023-01-23T22:07:37.527Z,41.33
2023-01-23T22:10:05.687Z,38.22
2023-01-23T22:12:33.974Z,39.58
2023-01-23T22:15:01.761Z,36.72
2023-01-23T22:17:29.671Z,37.13
2023-01-23T22:19:58.770Z,38.22
2023-01-23T22:22:26.901Z,37.47
2023-01-23T22:24:54.669Z,38.38
2023-01-23T22:27:23.330Z,37.72
2023-01-23T22:29:51.106Z,37.28
2023-01-23T22:32:19.455Z,38.20
2023-01-23T22:34:47.417Z,37.85
2023-01-23T22:37:16.560Z,36.88
2023-01-23T22:39:44.975Z,37.17
2023-01-23T22:42:12.797Z,39.03
2023-01-23T22:44:40.641Z,38.45
2023-01-23T22:47:08.794Z,38.83
2023-01-23T22:49:36.582Z,38.80
2023-01-23T22:52:04.432Z,38.85
2023-01-23T22:54:33.568Z,39.53
2023-01-23T22:57:01.452Z,40.45
2023-01-23T22:59:29.334Z,44.15
2023-01-23T23:01:57.606Z,38.88
2023-01-23T23:04:25.573Z,39.35
2023-01-23T23:06:53.333Z,37.25
2023-01-23T23:09:21.119Z,37.33
2023-01-23T23:11:51.761Z,38.38
2023-01-23T23:14:19.625Z,36.75
2023-01-23T23:16:47.383Z,37.10
2023-01-23T23:19:15.312Z,35.53
2023-01-23T23:21:43.099Z,36.03
2023-01-23T23:24:13.191Z,37.22
2023-01-23T23:26:41.025Z,35.53
2023-01-23T23:29:10.453Z,34.17
2023-01-23T23:31:38.344Z,33.03
2023-01-23T23:34:06.189Z,34.95
2023-01-23T23:36:33.995Z,36.42
2023-01-23T23:39:01.737Z,36.45
2023-01-23T23:41:29.676Z,34.85
2023-01-23T23:43:57.485Z,34.17
2023-01-23T23:46:26.731Z,34.50
2023-01-23T23:48:54.533Z,35.10
2023-01-23T23:51:23.726Z,33.78
2023-01-23T23:53:51.497Z,33.58
2023-01-23T23:56:20.807Z,35.22
2023-01-23T23:58:48.933Z,33.33
